메인 페이지
METAR-TAF:

METAR-TAF

공항 :

Danbury Municipal Airport

Danbury, 코네티컷, 미국

위도: 41-22-18N, 경도: 073-29-04W, 고도: 139m

현재 날씨관측

예보는 32분 전, 15:53시(UTC)에 발표되었습니다.
북서7kt
온도 22°C
습도 53%
기압 1013 hPa
시정: 16.1km
고도 4600ft 상공 구름 보통
고도 12000ft 상공 구름 보통

METAR: KDXR 301553Z 32007KT 10SM SCT046 SCT120 22/12 A2990 RMK AO2 SLP122 T02220117

시각: 12:25 (16:25 UTC)


TAF: 누락

4,000개 이상의 공항 관측 자료 및 예보 (METAR 및 TAF 보고).

지도상에서 검색 가능한 기상관측소가 노란 점과 빨간 점으로 표시되어 있습니다.

기상관측소 명을 보려면 표시 위로 마우스를 이동하세요.

날씨 관측과 예보를 보려면 클릭하세요.

지도 변경 : 확대하려면 엑스 표시가 있는 녹색 버튼, 축소하려면 빼기 표시가 있는 녹색 버튼, 다음 페이지의 지도를 보려면 녹색 화살표를 클릭하세요.


METAR-TAF: